Time;durP1;ratioP1;P1;durP2;ratioP2;P2;SDS_P1;SDS_P2;PMS_P1;PMS_P2;Temp;Humidity;BMP_temperature;BMP_pressure;BME280_temperature;BME280_humidity;BME280_pressure;Samples;Min_cycle;Max_cycle;Signal;HPM_P1;HPM_P2
2024/03/20 00:04:40;;;;;;;;;;;;;;;18.33;47.68;99982.13;10326952;28;857;-79
2024/03/20 00:09:36;;;;;;;;;;;;;;;18.30;47.63;99977.84;10327054;28;958;-78
2024/03/20 00:14:33;;;;;;;;;;;;;;;18.28;47.52;99979.66;10327859;28;857;-79
2024/03/20 00:19:29;;;;;;;;;;;;;;;18.28;47.64;99973.53;10326864;28;1949;-79
2024/03/20 00:24:25;;;;;;;;;;;;;;;18.26;47.43;99971.00;10326700;28;862;-79
2024/03/20 00:29:21;;;;;;;;;;;;;;;18.24;47.64;99972.81;10327106;28;1140;-79
2024/03/20 00:34:17;;;;;;;;;;;;;;;18.23;47.58;99967.59;10326400;28;796;-79
2024/03/20 00:39:13;;;;;;;;;;;;;;;18.22;47.62;99969.38;10326229;28;1967;-79
2024/03/20 00:44:09;;;;;;;;;;;;;;;18.20;47.53;99957.19;10325481;28;811;-79
2024/03/20 00:49:06;;;;;;;;;;;;;;;18.17;47.83;99959.00;10326599;28;946;-79
2024/03/20 00:54:02;;;;;;;;;;;;;;;18.17;47.61;99955.53;10325978;28;1629;-79
2024/03/20 00:58:58;;;;;;;;;;;;;;;18.15;47.79;99952.09;10325530;28;1909;-79
2024/03/20 01:03:54;;;;;;;;;;;;;;;18.13;47.49;99944.25;10326201;28;766;-79
2024/03/20 01:08:50;;;;;;;;;;;;;;;18.13;47.63;99948.66;10325788;28;856;-79
2024/03/20 01:13:45;;;;;;;;;;;;;;;18.10;47.74;99938.22;10325336;28;843;-79
2024/03/20 01:18:41;;;;;;;;;;;;;;;18.10;47.60;99932.94;10324637;28;1959;-79
2024/03/20 01:23:37;;;;;;;;;;;;;;;18.09;47.61;99937.38;10326078;28;799;-78
2024/03/20 01:28:33;;;;;;;;;;;18.60;51.10;;;18.07;47.63;99936.56;10324395;28;1391;-78
2024/03/20 01:33:28;;;;;;;;;;;18.60;51.60;;;18.06;47.74;99942.78;10325001;28;794;-79
2024/03/20 01:38:24;;;;;;;;;;;18.60;51.60;;;18.05;47.77;99941.06;10325160;28;1993;-79
2024/03/20 01:43:19;;;;;;;;;;;18.60;51.60;;;18.03;47.79;99931.50;10324821;28;985;-79
2024/03/20 01:48:15;;;;;;;;;;;18.60;51.60;;;18.01;47.78;99928.91;10325372;28;909;-78
2024/03/20 01:53:10;;;;;;;;;;;18.60;51.60;;;18.00;47.74;99923.69;10325223;28;774;-78
2024/03/20 01:58:05;;;;;;;;;;;18.50;51.50;;;17.99;47.71;99924.63;10325085;28;1963;-79
2024/03/20 02:03:01;;;;;;;;;;;18.50;51.60;;;17.98;47.71;99929.06;10325049;28;781;-79
2024/03/20 02:07:56;;;;;;;;;;;18.50;51.60;;;17.95;47.63;99930.03;10324585;28;917;-79
2024/03/20 02:12:52;;;;;;;;;;;18.50;51.60;;;17.95;47.75;99934.47;10324205;28;946;-79
2024/03/20 02:17:47;;;;;;;;;;;18.50;51.60;;;17.93;47.74;99936.28;10324102;28;1906;-79
2024/03/20 02:22:42;;;;;;;;;;;18.50;51.50;;;17.92;47.72;99937.19;10324054;28;1008;-79
2024/03/20 02:27:38;;;;;;;;;;;18.50;51.60;;;17.91;47.64;99932.84;10327338;28;818;-79
2024/03/20 02:32:33;;;;;;;;;;;18.50;51.60;;;17.89;47.61;99934.69;10331837;28;1136;-79
2024/03/20 02:37:28;;;;;;;;;;;18.50;51.60;;;17.88;47.76;99935.63;10331262;28;1973;-79
2024/03/20 02:42:24;;;;;;;;;;;18.40;51.70;;;17.87;47.81;99937.41;10331424;28;883;-79
2024/03/20 02:47:19;;;;;;;;;;;18.40;51.60;;;17.86;47.79;99926.91;10331214;28;889;-79
2024/03/20 02:52:15;;;;;;;;;;;18.40;51.60;;;17.85;47.72;99927.84;10330432;28;878;-78
2024/03/20 02:57:11;;;;;;;;;;;18.40;51.60;;;17.84;47.75;99937.53;10330152;28;1961;-80
2024/03/20 03:02:06;;;;;;;;;;;18.40;51.60;;;17.83;47.86;99934.94;10330058;28;885;-79
2024/03/20 03:07:02;;;;;;;;;;;18.40;51.60;;;17.81;47.59;99928.88;10330378;28;909;-79
2024/03/20 03:11:57;;;;;;;;;;;18.40;51.60;;;17.80;47.84;99928.03;10329120;28;932;-81
2024/03/20 03:16:52;;;;;;;;;;;18.40;51.60;;;17.79;47.68;99922.75;10328840;28;1969;-79
2024/03/20 03:21:48;;;;;;;;;;;18.30;51.50;;;17.78;47.65;99928.97;10329309;28;768;-79
2024/03/20 03:26:43;;;;;;;;;;;18.30;51.50;;;17.76;47.75;99929.03;10329730;28;857;-79
2024/03/20 03:31:39;;;;;;;;;;;18.30;51.60;;;17.74;47.76;99931.75;10329649;28;1109;-79
2024/03/20 03:36:34;;;;;;;;;;;18.30;51.60;;;17.74;47.68;99934.38;10329272;28;865;-78
2024/03/20 03:41:30;;;;;;;;;;;18.30;51.60;;;17.73;47.83;99937.91;10327437;28;1985;-79
2024/03/20 03:46:26;;;;;;;;;;;18.30;51.60;;;17.72;47.59;99936.19;10328255;28;910;-79
2024/03/20 03:51:21;;;;;;;;;;;18.20;51.50;;;17.71;47.88;99939.78;10328300;28;842;-80
2024/03/20 03:56:16;;;;;;;;;;;18.30;51.60;;;17.70;47.75;99932.75;10327310;28;869;-79
2024/03/20 04:01:13;;;;;;;;;;;18.20;51.50;;;17.68;47.68;99932.00;10327023;28;1914;-79
2024/03/20 04:06:09;;;;;;;;;;;18.20;51.60;;;17.67;47.61;99927.63;10327526;28;863;-78
2024/03/20 04:11:05;;;;;;;;;;;18.30;51.60;;;17.66;47.90;99925.91;10326761;28;1079;-78
2024/03/20 04:16:00;;;;;;;;;;;18.20;51.60;;;17.65;47.96;99929.44;10327046;28;879;-79
2024/03/20 04:20:55;;;;;;;;;;;18.20;51.60;;;17.64;47.68;99925.13;10326910;28;1977;-79
2024/03/20 04:25:51;;;;;;;;;;;18.20;51.60;;;17.64;47.68;99937.44;10327290;28;834;-79
2024/03/20 04:30:46;;;;;;;;;;;18.20;51.60;;;17.63;47.64;99933.06;10325834;28;1255;-79
2024/03/20 04:35:42;;;;;;;;;;;18.20;51.60;;;17.61;47.90;99935.78;10326379;28;817;-78
2024/03/20 04:40:37;;;;;;;;;;;18.20;51.60;;;17.60;47.81;99938.47;10326299;28;1917;-78
2024/03/20 04:45:32;;;;;;;;;;;18.10;51.50;;;17.59;47.75;99924.44;10326125;28;756;-79
2024/03/20 04:50:28;;;;;;;;;;;18.10;51.50;;;17.59;47.93;99931.50;10326428;28;829;-77
2024/03/20 04:55:23;;;;;;;;;;;18.10;51.50;;;17.58;47.77;99930.63;10326476;28;916;-79
2024/03/20 05:00:20;;;;;;;;;;;18.10;51.40;;;17.57;47.61;99936.81;10326030;28;1968;-78
2024/03/20 05:05:16;;;;;;;;;;;18.10;51.20;;;17.58;47.76;99937.66;10326599;28;854;-79
2024/03/20 05:10:11;;;;;;;;;;;18.20;51.20;;;17.59;47.91;99934.97;10325820;28;794;-79
2024/03/20 05:15:06;;;;;;;;;;;18.20;51.20;;;17.59;47.80;99937.63;10325425;28;806;-78
2024/03/20 05:20:03;;;;;;;;;;;18.30;51.10;;;17.61;47.63;99935.78;10324669;28;1973;-78
2024/03/20 05:24:58;;;;;;;;;;;18.30;51.10;;;17.65;47.61;99936.50;10325181;28;981;-75
2024/03/20 05:29:54;;;;;;;;;;;18.40;51.20;;;17.66;47.81;99939.09;10325916;28;1287;-74
2024/03/20 05:34:50;;;;;;;;;;;18.40;51.10;;;17.69;47.76;99943.38;10325102;28;794;-76
2024/03/20 05:39:45;;;;;;;;;;;18.50;51.10;;;17.71;47.81;99942.41;10325506;28;1988;-74
2024/03/20 05:44:41;;;;;;;;;;;18.60;51.00;;;17.72;47.99;99938.84;10324824;28;794;-72
2024/03/20 05:49:36;;;;;;;;;;;18.60;50.90;;;17.76;47.78;99944.84;10324274;28;894;-73
2024/03/20 05:54:31;;;;;;;;;;;18.60;51.00;;;17.80;47.93;99948.25;10325251;28;932;-73
2024/03/20 05:59:27;;;;;;;;;;;18.60;51.10;;;17.82;48.01;99959.63;10324356;28;1971;-72
2024/03/20 06:04:22;;;;;;;;;;;18.70;51.00;;;17.84;47.83;99955.13;10331497;28;795;-72
2024/03/20 06:09:18;;;;;;;;;;;18.70;51.00;;;17.86;47.78;99956.78;10332087;28;954;-74
2024/03/20 06:14:13;;;;;;;;;;;18.70;51.00;;;17.88;47.79;99960.22;10332153;28;878;-72
2024/03/20 06:19:09;;;;;;;;;;;18.80;51.10;;;17.90;47.92;99963.66;10332758;28;1898;-74
2024/03/20 06:24:04;;;;;;;;;;;18.80;51.10;;;17.93;48.01;99967.94;10331519;28;852;-71
2024/03/20 06:29:00;;;;;;;;;;;18.80;51.20;;;17.96;47.95;99978.38;10331328;28;1698;-71
2024/03/20 06:33:55;;;;;;;;;;;18.80;51.10;;;17.98;47.88;99983.59;10332092;28;850;-71
2024/03/20 06:38:51;;;;;;;;;;;18.90;51.20;;;18.00;47.82;99987.88;10330940;28;1981;-73
2024/03/20 06:43:50;;;;;;;;;;;18.90;51.20;;;18.02;47.94;99982.53;10330823;28;884;-71
2024/03/20 06:48:47;;;;;;;;;;;18.90;51.30;;;18.03;48.02;99990.38;10330000;28;1139;-71
2024/03/20 06:53:43;;;;;;;;;;;18.90;51.20;;;18.06;47.99;99992.91;10330954;28;835;-73
2024/03/20 06:58:38;;;;;;;;;;;18.90;51.30;;;18.07;47.96;99989.31;10330843;28;2030;-72
2024/03/20 07:03:34;;;;;;;;;;;18.90;51.30;;;18.08;47.90;99995.50;10329402;28;921;-71
2024/03/20 07:08:30;;;;;;;;;;;18.90;51.10;;;18.09;47.94;99995.41;10330473;28;807;-70
2024/03/20 07:13:25;;;;;;;;;;;18.90;51.10;;;18.09;48.12;100000.69;10330288;28;922;-71
2024/03/20 07:18:21;;;;;;;;;;;18.90;51.10;;;18.10;48.11;99996.25;10330060;28;1972;-71
2024/03/20 07:23:16;;;;;;;;;;;18.90;51.30;;;18.09;47.97;100000.69;10329334;28;769;-72
2024/03/20 07:28:12;;;;;;;;;;;18.90;51.30;;;18.08;48.04;99998.97;10326584;28;1115;-73
2024/03/20 07:33:09;;;;;;;;;;;18.80;51.40;;;18.09;48.10;100005.09;10329502;28;1121;-73
2024/03/20 07:38:09;;;;;;;;;;;18.90;51.50;;;18.08;48.15;100001.63;10326481;28;1918;-72
2024/03/20 07:43:04;;;;;;;;;;;18.80;51.50;;;18.10;48.08;100012.09;10328060;28;911;-72
2024/03/20 07:48:00;;;;;;;;;;;18.90;51.60;;;18.10;48.07;100010.34;10327025;28;829;-73
2024/03/20 07:52:55;;;;;;;;;;;18.80;51.50;;;18.11;48.01;100005.91;10327597;28;802;-73
2024/03/20 07:57:51;;;;;;;;;;;18.90;51.60;;;18.12;48.32;100008.47;10327211;28;1914;-73
2024/03/20 08:02:46;;;;;;;;;;;18.90;51.70;;;18.13;48.11;100012.84;10327499;28;875;-72
2024/03/20 08:07:42;;;;;;;;;;;18.90;51.70;;;18.15;48.19;100016.25;10324316;28;1093;-71
2024/03/20 08:12:37;;;;;;;;;;;19.00;51.70;;;18.16;48.13;100010.06;10326356;28;977;-72
2024/03/20 08:17:33;;;;;;;;;;;18.90;51.70;;;18.18;48.06;100020.53;10325404;28;1906;-71
2024/03/20 08:22:29;;;;;;;;;;;18.90;51.80;;;18.20;48.14;100017.84;10326107;28;1159;-72
2024/03/20 08:27:26;;;;;;;;;;;19.00;51.70;;;18.20;48.14;100016.06;10317581;28;1746;-73
2024/03/20 08:32:22;;;;;;;;;;;19.00;51.80;;;18.23;48.34;100020.38;10290724;28;1105;-72
2024/03/20 08:37:17;;;;;;;;;;;19.00;51.80;;;18.25;48.16;100031.72;10326059;28;1914;-72
2024/03/20 08:42:13;;;;;;;;;;;19.00;51.70;;;18.25;48.18;100024.66;10326295;28;864;-74
2024/03/20 08:47:08;;;;;;;;;;;19.00;51.70;;;18.26;48.40;100023.75;10327065;28;784;-74
2024/03/20 08:52:03;;;;;;;;;;;19.10;51.70;;;18.28;48.17;100031.59;10325759;28;888;-74
2024/03/20 08:56:59;;;;;;;;;;;19.00;51.60;;;18.29;48.10;100036.81;10325518;28;1898;-74
2024/03/20 09:01:54;;;;;;;;;;;19.10;51.70;;;18.30;48.19;100032.41;10326321;28;782;-74
2024/03/20 09:06:49;;;;;;;;;;;19.10;51.60;;;18.32;48.25;100035.84;10325484;28;739;-73
2024/03/20 09:11:45;;;;;;;;;;;19.10;51.70;;;18.33;48.09;100029.63;10325801;28;779;-79
2024/03/20 09:16:41;;;;;;;;;;;19.10;51.60;;;18.34;48.13;100036.66;10325991;28;783;-75
2024/03/20 09:21:38;;;;;;;;;;;19.10;51.70;;;18.34;47.93;100028.72;10324827;28;1969;-74
2024/03/20 09:26:34;;;;;;;;;;;19.10;51.60;;;18.36;48.19;100021.59;10325721;28;831;-74
2024/03/20 09:31:29;;;;;;;;;;;19.10;51.50;;;18.37;48.07;100020.69;10324713;28;1400;-74
2024/03/20 09:36:24;;;;;;;;;;;19.20;51.60;;;18.38;48.29;100025.03;10326875;28;787;-75
2024/03/20 09:41:20;;;;;;;;;;;19.10;51.50;;;18.38;48.21;100015.31;10333793;28;1981;-75
2024/03/20 09:46:15;;;;;;;;;;;19.20;51.50;;;18.39;48.18;100022.34;10332971;28;889;-75
2024/03/20 09:51:11;;;;;;;;;;;19.10;51.50;;;18.41;48.04;100014.34;10333462;28;894;-75
2024/03/20 09:56:12;;;;;;;;;;;19.20;51.50;;;18.42;48.07;100007.28;10333841;28;827;-74
2024/03/20 10:01:08;;;;;;;;;;;19.20;51.50;;;18.42;48.08;100015.19;10331793;28;1975;-74
2024/03/20 10:06:03;;;;;;;;;;;19.20;51.50;;;18.43;48.14;100014.28;10332176;28;934;-73
2024/03/20 10:10:58;;;;;;;;;;;19.20;51.50;;;18.43;48.06;100012.50;10331457;28;790;-74
2024/03/20 10:15:54;;;;;;;;;;;19.20;51.40;;;18.44;48.00;100005.44;10332679;28;802;-75
2024/03/20 10:20:49;;;;;;;;;;;19.30;51.40;;;18.44;48.20;100001.00;10331651;28;1913;-74
2024/03/20 10:25:45;;;;;;;;;;;19.20;51.40;;;18.46;47.93;100007.09;10332644;28;775;-76
2024/03/20 10:30:40;;;;;;;;;;;19.20;51.40;;;18.48;48.20;100005.25;10330510;28;1116;-75
2024/03/20 10:35:35;;;;;;;;;;;19.20;51.50;;;18.49;48.23;99998.19;10328760;28;807;-75
2024/03/20 10:40:31;;;;;;;;;;;19.30;51.40;;;18.49;48.10;100004.31;10329336;28;1923;-75
2024/03/20 10:45:26;;;;;;;;;;;19.20;51.50;;;18.49;47.91;100006.94;10329106;28;786;-75
2024/03/20 10:50:22;;;;;;;;;;;19.30;51.50;;;18.51;47.94;100001.63;10328491;28;783;-73
2024/03/20 10:55:18;;;;;;;;;;;19.30;51.60;;;18.54;48.04;99994.41;10328029;28;1010;-73
2024/03/20 11:00:14;;;;;;;;;;;19.30;51.70;;;18.54;48.29;99990.94;10327937;28;1965;-73
2024/03/20 11:05:09;;;;;;;;;;;19.40;52.30;;;18.53;48.86;99989.22;10327803;28;902;-73
2024/03/20 11:10:04;;;;;;;;;;;19.40;52.70;;;18.54;48.72;99988.28;10327712;28;875;-74
2024/03/20 11:15:00;;;;;;;;;;;19.30;52.60;;;18.54;48.51;99986.50;10328093;28;837;-74
2024/03/20 11:19:55;;;;;;;;;;;19.30;52.80;;;18.56;48.88;99984.66;10327296;28;1906;-75
2024/03/20 11:24:50;;;;;;;;;;;19.30;53.30;;;18.56;48.81;99978.53;10327185;28;861;-74
2024/03/20 11:29:46;;;;;;;;;;;19.30;52.70;;;18.55;48.83;99982.94;10288245;28;1107069;-74
2024/03/20 11:34:41;;;;;;;;;;;19.30;52.70;;;18.56;48.91;99975.88;10329708;28;905;-75
2024/03/20 11:39:37;;;;;;;;;;;19.30;52.70;;;18.54;48.70;99968.00;10329155;28;1981;-74
2024/03/20 11:44:32;;;;;;;;;;;19.20;52.60;;;18.54;48.61;99975.94;10329094;28;978;-74
2024/03/20 11:49:28;;;;;;;;;;;19.20;52.70;;;18.54;48.65;99980.38;10329469;28;831;-78
2024/03/20 11:54:23;;;;;;;;;;;19.20;52.70;;;18.52;48.73;99971.66;10327160;28;1155;-75
2024/03/20 11:59:19;;;;;;;;;;;19.20;52.70;;;18.53;48.65;99978.66;10325899;28;1905;-75
2024/03/20 12:04:14;;;;;;;;;;;19.30;52.60;;;18.52;48.73;99979.56;10327501;28;887;-75
2024/03/20 12:09:10;;;;;;;;;;;19.20;52.60;;;18.54;48.86;99972.44;10326604;28;952;-75
2024/03/20 12:14:05;;;;;;;;;;;19.20;52.70;;;18.52;48.83;99972.53;10327729;28;879;-75
2024/03/20 12:19:01;;;;;;;;;;;19.30;52.80;;;18.52;48.66;99969.88;10327386;28;1902;-74
2024/03/20 12:23:58;;;;;;;;;;;19.20;52.70;;;18.52;48.79;99964.59;10326687;28;827;-74
2024/03/20 12:28:53;;;;;;;;;;;19.30;52.70;;;18.52;48.65;99963.72;10326165;28;1210;-74
2024/03/20 12:33:51;;;;;;;;;;;19.30;52.80;;;18.53;48.68;99957.53;10325747;28;893;-74
2024/03/20 12:38:51;;;;;;;;;;;19.30;52.80;;;18.53;49.05;99960.19;10326243;28;1981;-73
2024/03/20 12:43:46;;;;;;;;;;;19.30;53.10;;;18.53;48.79;99953.13;10326303;28;766;-73
2024/03/20 12:48:42;;;;;;;;;;;19.30;52.80;;;18.53;48.66;99954.91;10326069;28;941;-74
2024/03/20 12:53:37;;;;;;;;;;;19.30;53.70;;;18.53;48.80;99945.19;10308232;28;758;-72
2024/03/20 12:58:33;;;;;;;;;;;19.20;53.50;;;18.54;48.92;99941.63;10326299;28;1919;-72
2024/03/20 13:03:28;;;;;;;;;;;19.30;52.80;;;18.55;48.81;99943.34;10326341;28;835;-72
2024/03/20 13:08:24;;;;;;;;;;;19.30;52.70;;;18.56;48.75;99939.78;10325142;28;907;-72
2024/03/20 13:13:20;;;;;;;;;;;19.20;52.50;;;18.59;48.66;99942.28;10325328;28;828;-72
2024/03/20 13:18:15;;;;;;;;;;;19.30;52.60;;;18.66;48.60;99931.47;10325214;28;1910;-72
2024/03/20 13:23:17;;;;;;;;;;;19.30;52.50;;;18.64;48.68;99934.16;10325315;28;865;-71
2024/03/20 13:28:14;;;;;;;;;;;19.30;52.30;;;18.65;48.47;99929.75;10325564;28;977;-85
2024/03/20 13:33:10;;;;;;;;;;;19.30;52.20;;;18.73;48.45;99928.50;10325481;28;1340;-81
2024/03/20 13:38:08;;;;;;;;;;;19.30;52.20;;;18.75;48.30;99926.66;10325502;28;1910;-80
2024/03/20 13:43:28;;;;;;;;;;;19.40;52.10;;;18.73;48.39;99922.34;10324866;28;899;-87
2024/03/20 13:48:19;;;;;;;;;;;19.40;52.00;;;18.74;48.41;99918.78;10324244;28;1628;-73
2024/03/20 13:53:14;;;;;;;;;;;19.40;52.00;;;18.71;48.32;99914.50;10324705;28;764;-73
2024/03/20 13:58:10;;;;;;;;;;;19.40;51.90;;;18.70;48.48;99912.75;10324513;28;1979;-73
2024/03/20 14:03:08;;;;;;;;;;;19.40;52.00;;;18.74;48.23;99905.59;10325343;28;805;-74
2024/03/20 14:08:04;;;;;;;;;;;19.50;52.00;;;18.82;48.10;99911.41;10324368;28;871;-74
2024/03/20 14:12:59;;;;;;;;;;;19.50;51.90;;;18.96;47.82;99908.97;10324961;28;798;-73
2024/03/20 14:17:56;;;;;;;;;;;19.60;51.80;;;19.00;47.91;99910.56;10324140;28;1977;-74
2024/03/20 14:22:51;;;;;;;;;;;19.70;51.70;;;19.08;47.82;99912.88;10326454;28;774;-73
2024/03/20 14:27:47;;;;;;;;;;;19.70;51.50;;;19.14;47.97;99914.34;10332043;28;880;-73
2024/03/20 14:32:42;;;;;;;;;;;19.70;51.60;;;19.21;47.66;99914.00;10330235;28;1405;-73
2024/03/20 14:37:39;;;;;;;;;;;19.80;51.50;;;19.14;47.92;99909.94;10330823;28;1975;-73
2024/03/20 14:42:35;;;;;;;;;;;19.80;51.60;;;19.02;48.17;99911.38;10330622;28;895;-72
2024/03/20 14:47:30;;;;;;;;;;;19.80;51.60;;;18.98;47.99;99909.78;10331082;28;853;-73
2024/03/20 14:52:26;;;;;;;;;;;19.70;51.50;;;18.96;48.18;99914.28;10330899;28;899;-73
2024/03/20 14:57:22;;;;;;;;;;;19.70;51.60;;;18.94;48.26;99916.16;10330620;28;1973;-72
2024/03/20 15:02:17;;;;;;;;;;;19.60;51.60;;;18.93;47.97;99909.13;10330532;28;897;-73
2024/03/20 15:07:13;;;;;;;;;;;19.60;51.80;;;18.94;48.06;99910.88;10329491;28;1468;-73
2024/03/20 15:12:08;;;;;;;;;;;19.30;53.10;;;18.93;48.03;99908.28;10329637;28;818;-71
2024/03/20 15:17:04;;;;;;;;;;;19.60;51.90;;;18.91;48.21;99900.41;10328836;28;932;-72
2024/03/20 15:21:59;;;;;;;;;;;19.60;52.00;;;18.92;48.16;99896.84;10329902;28;1906;-74
2024/03/20 15:26:54;;;;;;;;;;;19.60;57.50;;;18.92;48.34;99898.66;10329747;28;818;-73
2024/03/20 15:31:50;;;;;;;;;;;19.60;56.60;;;18.92;48.20;99896.00;10329041;28;1262;-73
2024/03/20 15:36:45;;;;;;;;;;;19.70;56.40;;;18.91;48.33;99897.75;10327480;28;1150;-74
2024/03/20 15:41:41;;;;;;;;;;;19.60;56.40;;;18.91;48.24;99895.13;10328926;28;1914;-73
2024/03/20 15:46:37;;;;;;;;;;;19.60;57.00;;;18.91;48.11;99887.19;10328753;28;867;-73
2024/03/20 15:51:33;;;;;;;;;;;19.50;54.60;;;18.93;48.12;99890.63;10328951;28;843;-73
2024/03/20 15:56:28;;;;;;;;;;;19.50;57.20;;;18.93;48.18;99884.50;10327798;28;1126;-73
2024/03/20 16:01:25;;;;;;;;;;;19.50;56.10;;;18.92;48.16;99888.09;10327572;28;1910;-73
2024/03/20 16:06:21;;;;;;;;;;;19.50;52.50;;;18.91;48.24;99895.13;10327343;28;1098;-74
2024/03/20 16:11:16;;;;;;;;;;;19.60;56.10;;;18.91;48.10;99892.47;10327819;28;936;-73
2024/03/20 16:16:11;;;;;;;;;;;19.50;55.40;;;18.91;48.27;99889.00;10326405;28;974;-73
2024/03/20 16:21:09;;;;;;;;;;;19.50;56.10;;;18.91;48.22;99896.91;10327383;28;1949;-74
2024/03/20 16:26:04;;;;;;;;;;;19.60;52.10;;;18.91;48.21;99902.19;10326593;28;973;-73
2024/03/20 16:31:00;;;;;;;;;;;19.60;52.10;;;18.91;48.19;99899.56;10326567;28;1127;-73
2024/03/20 16:35:55;;;;;;;;;;;19.60;52.20;;;18.92;48.16;99902.16;10326885;28;913;-74
2024/03/20 16:40:50;;;;;;;;;;;19.60;52.30;;;18.91;48.17;99896.91;10326658;28;1922;-73
2024/03/20 16:45:46;;;;;;;;;;;19.60;54.10;;;18.90;48.34;99896.06;10326251;28;857;-74
2024/03/20 16:50:41;;;;;;;;;;;19.60;53.30;;;18.90;47.88;99898.72;10325916;28;850;-75
2024/03/20 16:55:38;;;;;;;;;;;19.50;55.60;;;18.89;48.35;99897.00;10325206;28;934;-75
2024/03/20 17:00:34;;;;;;;;;;;19.60;55.10;;;18.89;48.43;99897.00;10325623;28;2054;-75
2024/03/20 17:05:30;;;;;;;;;;;19.60;56.90;;;18.90;48.21;99905.78;10325436;28;778;-74
2024/03/20 17:10:29;;;;;;;;;;;19.60;55.40;;;18.91;48.31;99915.41;10325966;28;791;-75
2024/03/20 17:15:24;;;;;;;;;;;19.60;56.60;;;18.90;48.32;99914.56;10324724;28;863;-74
2024/03/20 17:20:21;;;;;;;;;;;19.70;55.90;;;18.90;48.27;99919.00;10325719;28;1967;-74
2024/03/20 17:25:16;;;;;;;;;;;19.70;52.30;;;18.90;48.39;99916.34;10325746;28;782;-74
2024/03/20 17:30:13;;;;;;;;;;;19.60;55.60;;;18.90;48.22;99914.56;10324804;28;1061;-73
2024/03/20 17:35:08;;;;;;;;;;;19.60;57.40;;;18.90;48.34;99917.19;10324714;28;998;-75
2024/03/20 17:40:05;;;;;;;;;;;19.70;55.50;;;18.91;48.40;99923.34;10324653;28;1965;-74
2024/03/20 17:45:01;;;;;;;;;;;19.60;52.70;;;18.91;48.45;99923.34;10324576;28;969;-74
2024/03/20 17:50:01;;;;;;;;;;;19.60;56.90;;;18.90;48.36;99921.63;10324604;28;908;-74
2024/03/20 17:54:56;;;;;;;;;;;19.60;56.50;;;18.90;48.42;99919.84;10325103;28;778;-74
2024/03/20 17:59:52;;;;;;;;;;;19.60;52.70;;;18.91;48.48;99921.53;10330216;28;1906;-75
2024/03/20 18:04:47;;;;;;;;;;;19.70;56.30;;;18.90;48.27;99909.28;10331804;28;834;-78
2024/03/20 18:09:43;;;;;;;;;;;19.60;56.40;;;18.90;48.43;99909.28;10332195;28;826;-72
2024/03/20 18:14:38;;;;;;;;;;;19.70;56.80;;;18.90;48.35;99908.41;10332008;28;980;-71
2024/03/20 18:19:36;;;;;;;;;;;19.70;58.10;;;18.91;48.04;99905.69;10332417;28;1971;-72
2024/03/20 18:24:31;;;;;;;;;;;19.60;56.90;;;18.91;48.32;99913.63;10331641;28;949;-71
2024/03/20 18:29:27;;;;;;;;;;;19.70;52.60;;;18.91;48.37;99916.25;10331144;28;1243;-71
2024/03/20 18:34:22;;;;;;;;;;;19.70;54.90;;;18.94;48.31;99921.44;10331302;28;877;-72
2024/03/20 18:39:18;;;;;;;;;;;19.50;56.10;;;18.92;48.20;99912.72;10331140;28;1976;-72
2024/03/20 18:44:13;;;;;;;;;;;19.70;56.20;;;18.93;48.24;99913.56;10330930;28;795;-71
2024/03/20 18:49:08;;;;;;;;;;;19.70;57.30;;;18.93;48.41;99916.19;10330529;28;845;-72
2024/03/20 18:54:04;;;;;;;;;;;19.60;56.40;;;18.91;48.26;99916.25;10329787;28;841;-79
2024/03/20 18:58:59;;;;;;;;;;;19.70;52.60;;;18.93;48.07;99913.56;10330307;28;2036;-72
2024/03/20 19:03:54;;;;;;;;;;;19.70;56.90;;;18.93;48.32;99917.06;10330023;28;941;-72
2024/03/20 19:08:51;;;;;;;;;;;19.80;56.30;;;18.96;48.35;99934.53;10330022;28;825;-72
2024/03/20 19:13:46;;;;;;;;;;;19.70;56.30;;;18.96;48.45;99939.84;10330213;28;963;-71
2024/03/20 19:18:41;;;;;;;;;;;19.80;53.70;;;18.96;48.28;99938.03;10329913;28;1910;-72
2024/03/20 19:23:37;;;;;;;;;;;19.70;52.10;;;18.96;48.35;99939.84;10330038;28;849;-70
2024/03/20 19:28:32;;;;;;;;;;;19.70;52.10;;;18.97;48.09;99939.78;10329049;28;1203;-81
2024/03/20 19:33:28;;;;;;;;;;;19.70;54.80;;;18.97;48.40;99942.41;10328843;28;823;-72
2024/03/20 19:38:23;;;;;;;;;;;19.70;57.80;;;18.97;48.31;99942.41;10328587;28;1913;-72
2024/03/20 19:43:22;;;;;;;;;;;19.70;54.60;;;18.98;48.35;99937.97;10329153;28;1050;-72
2024/03/20 19:48:18;;;;;;;;;;;19.70;56.50;;;18.99;48.21;99939.69;10328239;28;811;-70
2024/03/20 19:53:13;;;;;;;;;;;19.70;55.10;;;18.99;48.40;99924.72;10328697;28;956;-70
2024/03/20 19:58:09;;;;;;;;;;;19.80;58.20;;;19.00;48.07;99930.84;10327181;28;1887;-70
2024/03/20 20:03:04;;;;;;;;;;;19.80;56.20;;;18.99;48.20;99932.66;10327884;28;1080;-70
2024/03/20 20:07:59;;;;;;;;;;;19.80;56.70;;;19.01;48.27;99924.63;10328052;28;806;-69
2024/03/20 20:12:55;;;;;;;;;;;19.80;56.80;;;19.02;48.13;99928.97;10327869;28;883;-69
2024/03/20 20:17:50;;;;;;;;;;;19.70;57.10;;;19.02;48.21;99926.34;10326396;28;1972;-69
2024/03/20 20:22:46;;;;;;;;;;;19.70;56.40;;;19.02;48.08;99934.25;10326440;28;889;-69
2024/03/20 20:27:41;;;;;;;;;;;19.70;57.00;;;19.02;48.13;99937.78;10326679;28;811;-69
2024/03/20 20:32:37;;;;;;;;;;;19.80;57.70;;;19.03;48.17;99946.56;10326799;28;1160;-69
2024/03/20 20:37:32;;;;;;;;;;;19.80;51.80;;;19.02;48.13;99945.72;10326200;28;1965;-69
2024/03/20 20:42:27;;;;;;;;;;;19.80;51.80;;;19.03;48.01;99943.91;10326911;28;794;-70
2024/03/20 20:47:23;;;;;;;;;;;19.70;51.70;;;19.03;48.16;99957.13;10326028;28;822;-70
2024/03/20 20:52:18;;;;;;;;;;;19.70;52.30;;;19.03;48.04;99957.97;10325890;28;818;-70
2024/03/20 20:57:14;;;;;;;;;;;19.70;51.70;;;19.02;48.17;99953.63;10326293;28;815;-70
2024/03/20 21:23:12;;;;;;;;;;;19.70;51.60;;;19.00;48.02;99960.75;10325768;28;609;-69
2024/03/20 21:28:08;;;;;;;;;;;19.70;51.70;;;18.99;48.15;99958.19;10325174;28;1102;-69
2024/03/20 21:33:03;;;;;;;;;;;19.70;51.70;;;19.00;48.08;99967.84;10330497;28;1468;-70
2024/03/20 21:37:58;;;;;;;;;;;19.80;51.80;;;18.98;48.04;99965.25;10334691;28;1918;-69
2024/03/20 21:42:54;;;;;;;;;;;19.60;51.70;;;18.98;48.13;99973.19;10333457;28;802;-70
2024/03/20 21:47:49;;;;;;;;;;;19.60;51.80;;;18.99;47.92;99974.91;10333255;28;928;-69
2024/03/20 21:52:46;;;;;;;;;;;19.60;51.80;;;18.98;47.89;99980.25;10332466;28;885;-70
2024/03/20 21:57:42;;;;;;;;;;;19.60;51.80;;;18.97;47.95;99974.13;10332718;28;1910;-69
2024/03/20 22:02:37;;;;;;;;;;;19.60;51.80;;;18.96;48.14;99975.03;10332637;28;881;-69
2024/03/20 22:07:33;;;;;;;;;;;19.60;51.70;;;18.95;47.85;99983.88;10332643;28;865;-69
2024/03/20 22:12:28;;;;;;;;;;;19.60;51.80;;;18.94;47.99;99979.53;10332247;28;963;-69
2024/03/20 22:17:24;;;;;;;;;;;19.60;51.90;;;18.94;48.17;99982.19;10331926;28;1963;-69
2024/03/20 22:22:20;;;;;;;;;;;19.60;51.90;;;18.92;48.07;99978.75;10331886;28;928;-70
2024/03/20 22:27:15;;;;;;;;;;;19.60;51.90;;;18.91;48.09;99981.44;10331666;28;818;-69
2024/03/20 22:32:12;;;;;;;;;;;19.50;51.80;;;18.90;48.01;99980.59;10330757;28;1295;-69
2024/03/20 22:37:07;;;;;;;;;;;19.50;51.90;;;18.88;48.00;99979.78;10331436;28;899;-70
2024/03/20 22:42:03;;;;;;;;;;;19.50;51.90;;;18.88;48.01;99977.16;10331401;28;1910;-69
2024/03/20 22:46:58;;;;;;;;;;;19.50;52.00;;;18.85;48.16;99979.94;10330556;28;877;-70
2024/03/20 22:51:54;;;;;;;;;;;19.60;52.10;;;18.84;48.03;99972.94;10331344;28;818;-69
2024/03/20 22:56:49;;;;;;;;;;;19.50;52.30;;;18.82;48.15;99970.34;10331153;28;851;-69
2024/03/20 23:01:45;;;;;;;;;;;19.40;52.70;;;18.81;48.13;99962.50;10330296;28;1963;-70
2024/03/20 23:06:41;;;;;;;;;;;19.40;52.10;;;18.78;48.02;99958.19;10330263;28;878;-70
2024/03/20 23:11:36;;;;;;;;;;;19.40;51.80;;;18.78;48.04;99967.91;10329439;28;1140;-69
2024/03/20 23:16:31;;;;;;;;;;;19.40;51.70;;;18.77;47.95;99960.94;10331190;28;880;-69
2024/03/20 23:21:27;;;;;;;;;;;19.40;51.70;;;18.75;47.87;99963.63;10311609;28;1957;-70